createdAt,value
2018-01-11T00:01:24.736Z,100970.86
2018-01-11T00:03:53.177Z,100970.22
2018-01-11T00:06:21.491Z,100971.64
2018-01-11T00:08:51.496Z,100973.03
2018-01-11T00:11:20.420Z,100971.05
2018-01-11T00:13:48.974Z,100972.52
2018-01-11T00:16:17.342Z,100963.29
2018-01-11T00:18:45.640Z,100958.85
2018-01-11T00:21:13.983Z,100957.50
2018-01-11T00:23:42.280Z,100958.44
2018-01-11T00:26:10.676Z,100956.25
2018-01-11T00:28:38.959Z,100954.44
2018-01-11T00:31:07.297Z,100961.02
2018-01-11T00:33:35.691Z,100971.02
2018-01-11T00:36:04.051Z,100970.22
2018-01-11T00:38:32.379Z,100963.05
2018-01-11T00:41:00.747Z,100960.85
2018-01-11T00:43:29.110Z,100960.28
2018-01-11T00:45:57.608Z,100957.75
2018-01-11T00:48:26.124Z,100951.54
2018-01-11T00:50:54.438Z,100952.97
2018-01-11T00:53:22.726Z,100958.14
2018-01-11T00:55:51.203Z,100960.04
2018-01-11T00:58:19.599Z,100958.56
2018-01-11T01:00:47.971Z,100956.48
2018-01-11T01:03:16.616Z,100957.43
2018-01-11T01:05:45.445Z,100958.38
2018-01-11T01:08:13.724Z,100961.27
2018-01-11T01:10:42.183Z,100961.31
2018-01-11T01:13:10.509Z,100964.38
2018-01-11T01:15:38.835Z,100965.09
2018-01-11T01:18:08.322Z,100971.57
2018-01-11T01:20:36.961Z,100963.91
2018-01-11T01:23:05.848Z,100965.13
2018-01-11T01:25:34.229Z,100962.66
2018-01-11T01:28:02.603Z,100972.51
2018-01-11T01:30:31.331Z,100969.25
2018-01-11T01:32:59.676Z,100976.88
2018-01-11T01:35:28.070Z,100968.88
2018-01-11T01:37:56.743Z,100973.52
2018-01-11T01:40:27.402Z,100976.89
2018-01-11T01:42:55.915Z,100978.89
2018-01-11T01:45:30.747Z,100980.25
2018-01-11T01:47:59.094Z,100978.02
2018-01-11T01:50:27.547Z,100980.59
2018-01-11T01:52:55.995Z,100979.59
2018-01-11T01:55:24.483Z,100981.00
2018-01-11T01:57:52.787Z,100983.21
2018-01-11T02:00:21.078Z,100987.84
2018-01-11T02:02:49.490Z,100989.59
2018-01-11T02:05:17.804Z,100983.34
2018-01-11T02:07:46.112Z,100980.47
2018-01-11T02:10:14.421Z,100987.15
2018-01-11T02:12:42.783Z,100986.13
2018-01-11T02:15:11.098Z,100976.72
2018-01-11T02:17:39.565Z,100985.76
2018-01-11T02:20:07.897Z,100984.53
2018-01-11T02:22:36.341Z,100992.02
2018-01-11T02:25:04.686Z,100996.34
2018-01-11T02:27:33.067Z,100993.67
2018-01-11T02:30:01.319Z,100989.90
2018-01-11T02:32:29.722Z,100993.69
2018-01-11T02:34:58.019Z,100994.80
2018-01-11T02:37:26.429Z,100997.23
2018-01-11T02:39:55.365Z,100997.57
2018-01-11T02:42:23.689Z,101006.92
2018-01-11T02:53:39.073Z,101006.25
2018-01-11T02:56:07.580Z,101007.06
2018-01-11T02:58:35.846Z,101021.93
2018-01-11T03:01:04.183Z,101012.28
2018-01-11T03:03:32.593Z,101004.18
2018-01-11T03:06:00.917Z,101001.08
2018-01-11T03:08:29.174Z,100999.75
2018-01-11T03:10:57.840Z,101007.00
2018-01-11T03:13:26.112Z,101005.70
2018-01-11T03:15:54.492Z,101002.32
2018-01-11T03:18:22.760Z,101008.17
2018-01-11T03:20:51.123Z,101007.37
2018-01-11T03:23:19.403Z,101005.15
2018-01-11T03:25:47.921Z,101002.70
2018-01-11T03:28:16.186Z,100999.96
2018-01-11T03:30:45.368Z,100997.11
2018-01-11T03:33:13.846Z,100999.56
2018-01-11T03:35:42.288Z,100999.25
2018-01-11T03:38:10.707Z,101001.63
2018-01-11T03:40:39.001Z,101005.33
2018-01-11T03:43:07.286Z,101000.72
2018-01-11T03:45:35.682Z,101003.24
2018-01-11T03:48:04.112Z,100997.92
2018-01-11T03:50:32.526Z,101001.55
2018-01-11T03:53:00.986Z,100995.38
2018-01-11T03:55:29.288Z,101001.73
2018-01-11T03:57:57.955Z,101003.91
2018-01-11T04:00:26.259Z,101002.17
2018-01-11T04:02:54.532Z,100999.14
2018-01-11T04:05:23.003Z,101000.84
2018-01-11T04:07:51.435Z,101003.37
2018-01-11T04:10:19.733Z,101002.19
2018-01-11T04:12:48.002Z,101001.42
2018-01-11T04:15:16.512Z,101002.72
2018-01-11T04:17:44.787Z,101005.97
2018-01-11T04:20:13.286Z,101000.41
2018-01-11T04:22:41.552Z,101006.91
2018-01-11T04:25:10.026Z,101003.26
2018-01-11T04:27:38.471Z,101008.23
2018-01-11T04:30:06.770Z,101001.06
2018-01-11T04:32:35.033Z,101006.88
2018-01-11T04:35:03.418Z,101011.66
2018-01-11T04:37:31.778Z,101011.48
2018-01-11T04:40:00.092Z,101010.37
2018-01-11T04:42:28.474Z,101013.00
2018-01-11T04:44:56.746Z,101006.68
2018-01-11T04:47:25.073Z,101011.02
2018-01-11T04:49:56.608Z,101003.94
2018-01-11T04:52:25.007Z,101007.58
2018-01-11T04:54:53.404Z,101002.58
2018-01-11T04:57:21.915Z,101010.73
2018-01-11T04:59:50.174Z,101011.73
2018-01-11T05:05:14.554Z,101019.21
2018-01-11T05:07:42.903Z,101017.80
2018-01-11T05:10:11.222Z,101015.16
2018-01-11T05:12:39.525Z,101018.45
2018-01-11T05:15:07.903Z,101021.97
2018-01-11T05:17:36.214Z,101021.72
2018-01-11T05:20:04.592Z,101024.02
2018-01-11T05:22:32.887Z,101021.08
2018-01-11T05:25:01.142Z,101022.38
2018-01-11T05:27:29.484Z,101024.14
2018-01-11T05:29:57.797Z,101027.74
2018-01-11T05:32:26.265Z,101034.75
2018-01-11T05:34:54.704Z,101036.35
2018-01-11T05:37:23.027Z,101044.17
2018-01-11T05:39:51.475Z,101044.35
2018-01-11T05:42:20.872Z,101046.67
2018-01-11T05:44:49.196Z,101046.59
2018-01-11T05:47:17.920Z,101051.01
2018-01-11T05:49:46.414Z,101045.31
2018-01-11T05:52:14.736Z,101047.11
2018-01-11T05:54:43.160Z,101046.87
2018-01-11T05:57:11.468Z,101056.36
2018-01-11T05:59:40.369Z,101054.47
2018-01-11T06:02:08.847Z,101057.65
2018-01-11T06:04:37.582Z,101059.83
2018-01-11T06:07:06.023Z,101054.08
2018-01-11T06:09:34.443Z,101061.59
2018-01-11T06:12:02.754Z,101059.06
2018-01-11T06:14:32.114Z,101061.27
2018-01-11T06:17:01.291Z,101063.66
2018-01-11T06:19:29.704Z,101065.36
2018-01-11T06:21:58.519Z,101068.80
2018-01-11T06:24:26.986Z,101066.72
2018-01-11T06:26:55.600Z,101077.96
2018-01-11T06:29:24.219Z,101082.97
2018-01-11T06:31:52.595Z,101084.80
2018-01-11T06:34:20.895Z,101084.45
2018-01-11T06:36:49.220Z,101089.17
2018-01-11T06:39:17.680Z,101086.08
2018-01-11T06:41:45.994Z,101088.46
2018-01-11T06:44:14.311Z,101088.34
2018-01-11T06:46:42.626Z,101092.75
2018-01-11T06:49:12.106Z,101088.75
2018-01-11T06:51:40.491Z,101095.77
2018-01-11T06:54:08.956Z,101097.98
2018-01-11T06:56:37.251Z,101102.93
2018-01-11T06:59:05.651Z,101102.48
2018-01-11T07:01:34.020Z,101097.77
2018-01-11T07:04:02.378Z,101089.72
2018-01-11T07:06:30.698Z,101083.48
2018-01-11T07:08:59.808Z,101090.15
2018-01-11T07:11:28.281Z,101090.80
2018-01-11T07:13:56.710Z,101091.97
2018-01-11T07:16:25.012Z,101090.47
2018-01-11T07:18:53.462Z,101094.34
2018-01-11T07:21:21.764Z,101097.45
2018-01-11T07:23:50.054Z,101102.93
2018-01-11T07:26:18.359Z,101101.16
2018-01-11T07:28:46.682Z,101099.61
2018-01-11T07:31:15.120Z,101104.52
2018-01-11T07:33:43.551Z,101107.47
2018-01-11T07:36:12.047Z,101110.75
2018-01-11T07:38:40.505Z,101106.59
2018-01-11T07:41:08.819Z,101110.81
2018-01-11T07:43:37.304Z,101107.91
2018-01-11T07:46:05.888Z,101108.14
2018-01-11T07:48:34.275Z,101108.05
2018-01-11T07:51:02.723Z,101108.95
2018-01-11T07:53:31.022Z,101116.94
2018-01-11T07:55:59.335Z,101108.25
2018-01-11T07:58:27.731Z,101110.95
2018-01-11T08:00:56.039Z,101105.57
2018-01-11T08:03:24.378Z,101110.03
2018-01-11T08:05:52.726Z,101105.56
2018-01-11T08:08:21.020Z,101105.56
2018-01-11T08:10:49.342Z,101111.26
2018-01-11T08:13:17.662Z,101113.31
2018-01-11T08:15:46.040Z,101118.71
2018-01-11T08:18:14.503Z,101117.75
2018-01-11T08:20:42.850Z,101121.18
2018-01-11T08:23:11.197Z,101122.46
2018-01-11T08:25:39.634Z,101135.52
2018-01-11T08:28:08.142Z,101131.36
2018-01-11T08:30:36.449Z,101135.63
2018-01-11T08:33:04.855Z,101136.80
2018-01-11T08:35:33.171Z,101136.58
2018-01-11T08:38:01.539Z,101149.36
2018-01-11T08:40:30.068Z,101149.28
2018-01-11T08:42:58.400Z,101141.05
2018-01-11T08:45:26.773Z,101148.64
2018-01-11T08:47:55.096Z,101147.10
2018-01-11T08:50:23.711Z,101147.56
2018-01-11T08:52:52.302Z,101152.45
2018-01-11T08:55:20.804Z,101163.13
2018-01-11T08:57:49.647Z,101166.16
2018-01-11T09:00:17.961Z,101162.72
2018-01-11T09:02:46.252Z,101168.22
2018-01-11T09:05:14.613Z,101163.67
2018-01-11T09:07:42.917Z,101164.76
2018-01-11T09:10:11.261Z,101171.61
2018-01-11T09:12:39.538Z,101174.50
2018-01-11T09:15:07.861Z,101172.75
2018-01-11T09:17:36.175Z,101180.52
2018-01-11T09:20:04.483Z,101182.27
2018-01-11T09:22:32.814Z,101182.03
2018-01-11T09:25:01.051Z,101190.96
2018-01-11T09:27:29.380Z,101196.61
2018-01-11T09:29:57.646Z,101201.05
2018-01-11T09:32:26.128Z,101198.23
2018-01-11T09:34:54.423Z,101207.56
2018-01-11T09:37:22.779Z,101213.16
2018-01-11T09:39:51.076Z,101214.78
2018-01-11T09:42:19.442Z,101215.28
2018-01-11T09:44:47.710Z,101223.03
2018-01-11T09:47:16.238Z,101220.39
2018-01-11T09:49:44.679Z,101222.47
2018-01-11T09:52:13.048Z,101224.24
2018-01-11T09:54:41.359Z,101229.02
2018-01-11T09:57:09.675Z,101226.73
2018-01-11T09:59:37.967Z,101226.73
2018-01-11T10:02:06.281Z,101227.09
2018-01-11T10:04:34.652Z,101226.64
2018-01-11T10:07:02.988Z,101224.80
2018-01-11T10:09:31.304Z,101225.13
2018-01-11T10:11:59.783Z,101219.01
2018-01-11T10:14:28.060Z,101218.22
2018-01-11T10:16:56.572Z,101224.75
2018-01-11T10:19:24.864Z,101225.20
2018-01-11T10:21:53.319Z,101226.83
2018-01-11T10:24:21.774Z,101226.37
2018-01-11T10:26:50.228Z,101226.95
2018-01-11T10:29:19.066Z,101222.01
2018-01-11T10:31:47.379Z,101226.39
2018-01-11T10:34:15.684Z,101229.66
2018-01-11T10:36:43.983Z,101220.63
2018-01-11T10:39:12.367Z,101229.08
2018-01-11T10:41:40.674Z,101237.16
2018-01-11T10:44:08.951Z,101233.50
2018-01-11T10:46:37.279Z,101234.15
2018-01-11T10:49:05.673Z,101236.98
2018-01-11T10:51:34.091Z,101234.73
2018-01-11T10:54:02.436Z,101237.67
2018-01-11T10:56:30.760Z,101240.67
2018-01-11T10:58:59.075Z,101237.88
2018-01-11T11:01:31.534Z,101241.48
2018-01-11T11:03:59.909Z,101236.19
2018-01-11T11:06:28.238Z,101232.50
2018-01-11T11:08:56.527Z,101239.95
2018-01-11T11:11:24.966Z,101239.68
2018-01-11T11:13:53.307Z,101240.92
2018-01-11T11:16:21.727Z,101242.75
2018-01-11T11:18:50.193Z,101236.41
2018-01-11T11:21:18.526Z,101241.98
2018-01-11T11:23:46.850Z,101236.84
2018-01-11T11:26:15.230Z,101235.93
2018-01-11T11:28:43.517Z,101239.02
2018-01-11T11:31:11.991Z,101244.17
2018-01-11T11:33:40.288Z,101245.98
2018-01-11T11:36:08.651Z,101245.75
2018-01-11T11:38:36.915Z,101244.30
2018-01-11T11:41:05.218Z,101251.09
2018-01-11T11:43:33.651Z,101241.75
2018-01-11T11:46:01.946Z,101241.80
2018-01-11T11:48:30.236Z,101249.21
2018-01-11T11:50:58.576Z,101245.80
2018-01-11T11:53:26.846Z,101246.03
2018-01-11T11:55:55.163Z,101244.33
2018-01-11T11:58:23.455Z,101241.91
2018-01-11T12:00:51.922Z,101248.40
2018-01-11T12:03:21.848Z,101248.08
2018-01-11T12:05:50.174Z,101246.44
2018-01-11T12:08:18.480Z,101241.13
2018-01-11T12:10:46.778Z,101241.84
2018-01-11T12:13:15.058Z,101249.16
2018-01-11T12:15:43.416Z,101243.03
2018-01-11T12:18:11.730Z,101249.81
2018-01-11T12:20:40.062Z,101252.75
2018-01-11T12:23:08.455Z,101255.75
2018-01-11T12:25:36.761Z,101261.94
2018-01-11T12:28:05.215Z,101257.86
2018-01-11T12:30:33.651Z,101259.94
2018-01-11T12:33:02.147Z,101263.00
2018-01-11T12:35:30.444Z,101264.09
2018-01-11T12:37:58.743Z,101264.73
2018-01-11T12:40:33.574Z,101263.55
2018-01-11T12:43:02.018Z,101262.61
2018-01-11T12:45:30.553Z,101264.84
2018-01-11T12:47:58.862Z,101268.08
2018-01-11T12:50:27.183Z,101277.23
2018-01-11T12:52:57.432Z,101272.87
2018-01-11T12:55:25.743Z,101267.55
2018-01-11T12:57:54.072Z,101267.92
2018-01-11T13:00:22.543Z,101273.83
2018-01-11T13:02:50.875Z,101271.75
2018-01-11T13:05:19.226Z,101269.22
2018-01-11T13:07:47.601Z,101273.13
2018-01-11T13:10:15.880Z,101278.23
2018-01-11T13:12:44.155Z,101281.77
2018-01-11T13:15:12.469Z,101292.29
2018-01-11T13:17:40.895Z,101297.78
2018-01-11T13:20:09.223Z,101300.83
2018-01-11T13:22:37.559Z,101302.91
2018-01-11T13:25:05.928Z,101298.59
2018-01-11T13:27:34.275Z,101296.10
2018-01-11T13:30:02.769Z,101309.61
2018-01-11T13:32:31.276Z,101307.02
2018-01-11T13:34:59.712Z,101316.89
2018-01-11T13:37:28.420Z,101312.39
2018-01-11T13:39:59.531Z,101317.75
2018-01-11T13:42:28.820Z,101318.66
2018-01-11T13:44:57.611Z,101321.78
2018-01-11T13:47:26.824Z,101323.21
2018-01-11T13:49:55.311Z,101316.61
2018-01-11T13:52:23.782Z,101321.44
2018-01-11T13:54:52.763Z,101328.64
2018-01-11T13:57:21.669Z,101324.27
2018-01-11T13:59:49.972Z,101325.67
2018-01-11T14:02:18.342Z,101328.15
2018-01-11T14:04:46.824Z,101325.86
2018-01-11T14:07:15.313Z,101325.92
2018-01-11T14:09:45.018Z,101329.34
2018-01-11T14:12:15.707Z,101325.77
2018-01-11T14:14:46.389Z,101344.38
2018-01-11T14:17:14.799Z,101345.55
2018-01-11T14:19:43.159Z,101344.97
2018-01-11T14:22:11.717Z,101348.22
2018-01-11T14:24:40.188Z,101346.86
2018-01-11T14:27:08.687Z,101350.53
2018-01-11T14:29:38.328Z,101353.02
2018-01-11T14:32:06.935Z,101346.16
2018-01-11T14:34:36.064Z,101344.44
2018-01-11T14:37:04.431Z,101350.58
2018-01-11T14:39:32.991Z,101355.96
2018-01-11T14:42:01.323Z,101349.13
2018-01-11T14:44:32.283Z,101357.18
2018-01-11T14:47:01.075Z,101360.09
2018-01-11T14:49:29.342Z,101364.27
2018-01-11T14:51:57.741Z,101363.13
2018-01-11T14:54:26.395Z,101370.94
2018-01-11T14:56:54.958Z,101368.34
2018-01-11T14:59:23.231Z,101379.42
2018-01-11T15:01:51.587Z,101387.56
2018-01-11T15:04:19.908Z,101392.10
2018-01-11T15:06:48.260Z,101393.81
2018-01-11T15:09:16.808Z,101398.14
2018-01-11T15:11:45.195Z,101402.91
2018-01-11T15:14:13.528Z,101399.57
2018-01-11T15:16:42.011Z,101403.23
2018-01-11T15:19:10.327Z,101402.33
2018-01-11T15:21:38.693Z,101410.58
2018-01-11T15:24:07.058Z,101419.11
2018-01-11T15:26:35.387Z,101425.05
2018-01-11T15:29:03.898Z,101426.44
2018-01-11T15:31:32.263Z,101435.08
2018-01-11T15:34:00.708Z,101431.86
2018-01-11T15:36:29.058Z,101433.64
2018-01-11T15:38:57.550Z,101453.03
2018-01-11T15:41:25.887Z,101440.63
2018-01-11T15:43:54.211Z,101452.89
2018-01-11T15:46:22.515Z,101449.42
2018-01-11T15:48:50.990Z,101452.09
2018-01-11T15:51:19.517Z,101452.69
2018-01-11T15:53:47.930Z,101455.45
2018-01-11T15:56:16.385Z,101454.66
2018-01-11T15:58:45.511Z,101457.23
2018-01-11T16:01:13.995Z,101455.44
2018-01-11T16:03:42.286Z,101456.80
2018-01-11T16:06:10.711Z,101458.27
2018-01-11T16:08:39.124Z,101454.08
2018-01-11T16:11:07.684Z,101453.23
2018-01-11T16:13:36.021Z,101446.11
2018-01-11T16:16:04.391Z,101450.05
2018-01-11T16:18:32.951Z,101446.31
2018-01-11T16:21:01.507Z,101454.50
2018-01-11T16:23:29.852Z,101456.02
2018-01-11T16:25:58.456Z,101450.84
2018-01-11T16:28:27.151Z,101459.27
2018-01-11T16:30:55.679Z,101462.73
2018-01-11T16:33:25.473Z,101463.22
2018-01-11T16:35:53.788Z,101466.46
2018-01-11T16:38:22.068Z,101471.77
2018-01-11T16:40:50.479Z,101475.70
2018-01-11T16:43:18.783Z,101472.47
2018-01-11T16:45:47.127Z,101475.16
2018-01-11T16:48:15.427Z,101477.78
2018-01-11T16:50:44.140Z,101478.20
2018-01-11T16:53:12.462Z,101481.55
2018-01-11T16:55:40.774Z,101482.48
2018-01-11T16:58:09.115Z,101483.80
2018-01-11T17:00:37.431Z,101493.34
2018-01-11T17:03:06.088Z,101496.16
2018-01-11T17:05:34.382Z,101495.72
2018-01-11T17:08:04.495Z,101491.32
2018-01-11T17:10:32.963Z,101497.29
2018-01-11T17:13:01.244Z,101503.24
2018-01-11T17:15:29.587Z,101510.80
2018-01-11T17:17:57.934Z,101510.33
2018-01-11T17:20:26.316Z,101509.53
2018-01-11T17:22:54.614Z,101513.02
2018-01-11T17:25:22.972Z,101508.67
2018-01-11T17:27:51.563Z,101511.27
2018-01-11T17:30:19.940Z,101514.27
2018-01-11T17:32:48.210Z,101524.00
2018-01-11T17:35:16.870Z,101529.51
2018-01-11T17:37:45.274Z,101530.95
2018-01-11T17:40:14.568Z,101534.00
2018-01-11T17:42:42.892Z,101538.13
2018-01-11T17:45:11.218Z,101543.31
2018-01-11T17:47:39.619Z,101549.16
2018-01-11T17:50:11.265Z,101546.28
2018-01-11T17:52:39.947Z,101550.11
2018-01-11T17:55:08.267Z,101551.84
2018-01-11T17:57:36.640Z,101560.41
2018-01-11T18:00:05.967Z,101563.92
2018-01-11T18:02:34.346Z,101569.22
2018-01-11T18:05:03.230Z,101574.31
2018-01-11T18:07:31.803Z,101570.30
2018-01-11T18:10:01.449Z,101569.50
2018-01-11T18:12:30.560Z,101567.47
2018-01-11T18:14:59.826Z,101567.50
2018-01-11T18:17:28.487Z,101570.22
2018-01-11T18:19:57.023Z,101573.89
2018-01-11T18:22:25.587Z,101572.14
2018-01-11T18:24:54.482Z,101571.47
2018-01-11T18:27:24.854Z,101573.86
2018-01-11T18:29:53.359Z,101577.46
2018-01-11T18:32:21.756Z,101579.88
2018-01-11T18:34:51.730Z,101575.34
2018-01-11T18:37:20.166Z,101579.61
2018-01-11T18:39:49.462Z,101586.94
2018-01-11T18:42:18.862Z,101584.77
2018-01-11T18:44:47.387Z,101592.16
2018-01-11T18:47:16.196Z,101589.41
2018-01-11T18:49:45.364Z,101597.66
2018-01-11T18:52:14.106Z,101599.50
2018-01-11T18:54:43.376Z,101603.20
2018-01-11T18:57:11.768Z,101607.28
2018-01-11T18:59:41.519Z,101612.70
2018-01-11T19:02:10.178Z,101615.68
2018-01-11T19:04:38.770Z,101606.32
2018-01-11T19:07:07.339Z,101606.95
2018-01-11T19:09:35.712Z,101608.11
2018-01-11T19:12:04.123Z,101616.30
2018-01-11T19:14:39.079Z,101621.24
2018-01-11T19:17:07.474Z,101627.19
2018-01-11T19:19:35.738Z,101630.64
2018-01-11T19:22:04.102Z,101632.63
2018-01-11T19:24:32.417Z,101632.50
2018-01-11T19:27:00.812Z,101636.20
2018-01-11T19:29:29.118Z,101638.77
2018-01-11T19:31:57.623Z,101640.54
2018-01-11T19:34:27.541Z,101643.51
2018-01-11T19:36:56.276Z,101650.65
2018-01-11T19:39:24.612Z,101651.86
2018-01-11T19:41:53.959Z,101655.14
2018-01-11T19:44:23.033Z,101662.03
2018-01-11T19:46:52.067Z,101653.95
2018-01-11T19:49:21.776Z,101661.55
2018-01-11T19:51:50.634Z,101663.97
2018-01-11T19:54:19.160Z,101666.09
2018-01-11T19:56:47.510Z,101662.72
2018-01-11T19:59:16.919Z,101661.41
2018-01-11T20:01:45.358Z,101672.31
2018-01-11T20:04:13.636Z,101671.89
2018-01-11T20:06:41.973Z,101676.80
2018-01-11T20:09:10.469Z,101685.45
2018-01-11T20:11:38.795Z,101687.77
2018-01-11T20:14:07.126Z,101696.34
2018-01-11T20:16:35.439Z,101697.08
2018-01-11T20:19:04.348Z,101707.20
2018-01-11T20:21:32.671Z,101706.52
2018-01-11T20:24:00.979Z,101707.86
2018-01-11T20:26:29.400Z,101709.60
2018-01-11T20:30:00.476Z,101706.62
2018-01-11T20:32:28.944Z,101715.23
2018-01-11T20:34:57.208Z,101711.20
2018-01-11T20:37:25.745Z,101708.31
2018-01-11T20:39:54.007Z,101714.66
2018-01-11T20:42:22.523Z,101709.72
2018-01-11T20:44:50.838Z,101710.66
2018-01-11T20:47:19.194Z,101713.52
2018-01-11T20:49:47.478Z,101712.63
2018-01-11T20:52:16.063Z,101721.69
2018-01-11T20:54:44.452Z,101725.41
2018-01-11T20:57:12.812Z,101725.48
2018-01-11T20:59:41.151Z,101730.44
2018-01-11T21:02:09.590Z,101730.61
2018-01-11T21:04:37.883Z,101738.17
2018-01-11T21:07:06.259Z,101742.56
2018-01-11T21:09:34.547Z,101742.66
2018-01-11T21:12:02.879Z,101742.32
2018-01-11T21:14:31.227Z,101743.92
2018-01-11T21:16:59.556Z,101754.77
2018-01-11T21:19:27.835Z,101754.73
2018-01-11T21:21:57.960Z,101764.81
2018-01-11T21:24:27.393Z,101765.42
2018-01-11T21:26:55.947Z,101768.09
2018-01-11T21:29:24.631Z,101771.17
2018-01-11T21:31:53.130Z,101777.13
2018-01-11T21:34:22.632Z,101784.17
2018-01-11T21:36:51.454Z,101783.70
2018-01-11T21:39:20.024Z,101787.80
2018-01-11T21:41:48.529Z,101789.05
2018-01-11T21:44:16.855Z,101785.54
2018-01-11T21:46:45.157Z,101787.48
2018-01-11T21:49:13.560Z,101792.28
2018-01-11T21:51:41.874Z,101792.38
2018-01-11T21:54:10.356Z,101791.62
2018-01-11T21:56:38.951Z,101794.61
2018-01-11T21:59:07.673Z,101799.66
2018-01-11T22:01:36.735Z,101807.82
2018-01-11T22:04:05.389Z,101804.66
2018-01-11T22:06:33.908Z,101808.55
2018-01-11T22:09:02.193Z,101810.28
2018-01-11T22:11:30.622Z,101814.94
2018-01-11T22:13:58.939Z,101825.27
2018-01-11T22:16:27.410Z,101820.86
2018-01-11T22:18:55.727Z,101813.80
2018-01-11T22:21:24.055Z,101817.90
2018-01-11T22:23:52.360Z,101824.27
2018-01-11T22:26:21.163Z,101831.34
2018-01-11T22:28:49.482Z,101839.67
2018-01-11T22:31:18.044Z,101832.27
2018-01-11T22:33:46.451Z,101842.72
2018-01-11T22:36:14.807Z,101847.02
2018-01-11T22:38:43.150Z,101847.82
2018-01-11T22:41:11.601Z,101850.52
2018-01-11T22:43:39.935Z,101848.03
2018-01-11T22:46:08.322Z,101849.78
2018-01-11T22:48:36.623Z,101853.30
2018-01-11T22:51:05.124Z,101853.56
2018-01-11T22:53:33.454Z,101857.00
2018-01-11T22:56:01.884Z,101853.38
2018-01-11T22:58:30.318Z,101850.20
2018-01-11T23:00:58.656Z,101863.70
2018-01-11T23:03:27.062Z,101864.35
2018-01-11T23:05:55.466Z,101862.86
2018-01-11T23:08:23.811Z,101864.95
2018-01-11T23:10:53.708Z,101870.16
2018-01-11T23:13:22.004Z,101868.99
2018-01-11T23:15:52.347Z,101874.98
2018-01-11T23:18:20.842Z,101875.80
2018-01-11T23:20:49.143Z,101871.28
2018-01-11T23:23:17.525Z,101873.70
2018-01-11T23:25:45.873Z,101878.50
2018-01-11T23:28:14.225Z,101877.20
2018-01-11T23:30:42.514Z,101883.27
2018-01-11T23:33:10.858Z,101886.92
2018-01-11T23:35:39.193Z,101879.67
2018-01-11T23:38:07.676Z,101876.92
2018-01-11T23:40:36.023Z,101882.28
2018-01-11T23:43:04.326Z,101886.77
2018-01-11T23:45:32.626Z,101885.09
2018-01-11T23:48:00.947Z,101888.69
2018-01-11T23:50:29.289Z,101889.84
2018-01-11T23:52:57.640Z,101886.89
2018-01-11T23:55:27.288Z,101876.55
2018-01-11T23:57:55.583Z,101887.13
